Annette Island, AK

4:18 PM AKDT on August 31, 2015 (GMT -0800)
Annette Island | | Change Station
CLOSE
Current Station
Airport
Location: Annette Island,
Elevation: 112 ft
Nearby Weather Stations

Elev 112 ft 55.04 °N, 131.57 °W | Updated 25 minutes ago

Light Rain
Light Rain
56 °F
Feels Like 56 °F
N
12
Wind Variable Wind from SSE

Today
High -- | Low -- °F
--% Chance of Precip.
Yesterday
High -- | Low -- °F
Precip. -- in
5:50 AM 7:41 PM
Waning Gibbous, 93% visible
Pressure 29.58 in
Visibility 10.0 miles
Clouds Few 3000 ft
Scattered Clouds 6000 ft
Scattered Clouds 10000 ft
Mostly Cloudy 20000 ft
Dew Point 49 °F
Humidity 77%
Rainfall 0.03 in
Snow Depth Not available.
UV 2 out of 12
Pollen Not available.
Air Quality Not available.
Flu Activity Not available.
METAR PANT 312353Z 16010KT 10SM -RA FEW030 SCT060 SCT100 BKN200 13/09 A2957 RMK SLP015 P0000 60002 T01330094 10139 20117 58005 VIA AUTODIAL
Pressure 29.58 in
Visibility 10.0 miles
Clouds Few 3000 ft
Scattered Clouds 6000 ft
Scattered Clouds 10000 ft
Mostly Cloudy 20000 ft
Dew Point 49 °F
Humidity 77%
Rainfall 0.03 in
Snow Depth Not available.
UV 2 out of 12
Pollen Not available.
Air Quality Not available.
Flu Activity Not available.
METAR PANT 312353Z 16010KT 10SM -RA FEW030 SCT060 SCT100 BKN200 13/09 A2957 RMK SLP015 P0000 60002 T01330094 10139 20117 58005 VIA AUTODIAL

10-Day Weather Forecast

×

Almanac

Astronomy

Aug. 31, 2015 Rise Set
Actual Time
Civil Twilight
Nautical Twilight
Astronomical Twilight
Moon
Length of Visible Light
Length of Day
Tomorrow will be .
, % of the Moon is Illuminated

Today's Extremes

State Highs State Lows

Community

WunderPhotos

Upload Photos

1,851,403 photos uploaded!

WunderBlogs® & News

Nearby

Air Quality

  Air Quality AQ Index Pollutant
Not available.

Snow Depth

Station Depth Elevation

Earthquake Activity

City Distance Mag. Time & Date
Minimum magnitude displayed is 2.5.

Coastal Water Temperatures

Place Temperature

Stations

Nearby Weather Stations

Station Location Temp. Windchill Dew Point Humidity Wind Precip. Elev Updated Type